New Atlantic — WDC9718 — position and weather

sailwx.info

Track history (hours):
 
Tides and Currents Weather Stations Pressure Air Temp Water Temp Dewpoint Dewpoint Depression Visibility Wind Speed Wind Dir Waves Ship Positions

New Atlantic

Owner: EPB LEASING LLC, Seattle, WA. More information available from US FCC via Universal Licensing System and Coast Guard Vessel Documentation Center.

Last reported at 2016-Jul-22 23:25 UTC. Time now 2016-Jul-23 09:13 UTC.
Position N 48°51' W 123°30'.

Length 28 m; draft 2 m.

Type: Pleasure craft. MMSI: 367105860.

Date/timePositionNaut miles runAvg speedWind from/ knotsBaromVisibWave heightAir tempDewpointWater temp
2016-Jul-22 23:25N 48°51' W 123°30'0 0.0
2016-Jul-22 22:32N 48°51' W 123°30'0 0.0
2016-Jul-22 20:32N 48°51' W 123°30'0 0.0
2016-Jul-22 16:30N 48°51' W 123°30'16 0.7
2016-Jul-21 18:15N 49°04' W 123°44'810.0
2016-Jul-21 17:28N 49°09' W 123°53'4 0.1
2016-Jul-19 23:33N 49°13' W 123°55'1110.3
2016-Jul-19 22:28N 49°19' W 124°10'910.4
2016-Jul-19 21:34N 49°23' W 124°23'1110.5
2016-Jul-19 20:32N 49°28' W 124°38'3310.7
2016-Jul-19 17:28N 49°55' W 125°06'8 9.2
2016-Jul-19 16:33N 50°02' W 125°14'1 0.6
2016-Jul-19 15:34N 50°02' W 125°14'0 0.0
2016-Jul-19 14:34N 50°02' W 125°14'0 0.0
2016-Jul-19 13:33N 50°02' W 125°14'0 0.0
2016-Jul-19 12:34N 50°02' W 125°14'0 0.0
2016-Jul-19 11:34N 50°02' W 125°14'0 0.0
2016-Jul-19 10:34N 50°02' W 125°14'0 0.0
2016-Jul-19 09:33N 50°02' W 125°14'0 0.0
2016-Jul-19 08:34N 50°02' W 125°14'0 0.0
2016-Jul-19 07:33N 50°02' W 125°14'0 0.0
2016-Jul-19 04:34N 50°02' W 125°14'0 0.0
2016-Jul-19 03:34N 50°02' W 125°14'0 0.0
2016-Jul-19 02:34N 50°02' W 125°14'0 0.0
2016-Jul-19 01:34N 50°02' W 125°14'0 0.0
2016-Jul-19 00:33N 50°02' W 125°14'5 4.5
2016-Jul-18 23:34N 50°06' W 125°18'6 5.8
2016-Jul-18 22:33N 50°11' W 125°21'5 5.0
2016-Jul-18 21:32N 50°16' W 125°24'11 2.2
2016-Jul-18 16:33N 50°25' W 125°13'2 0.0
2016-Jul-16 21:32N 50°24' W 125°10'4 3.7
2016-Jul-16 20:33N 50°21' W 125°08'3 2.8
2016-Jul-16 19:33N 50°19' W 125°05'8 7.6
2016-Jul-16 18:33N 50°18' W 124°53'7 6.7
2016-Jul-16 17:33N 50°13' W 124°47'6 5.7
2016-Jul-16 16:33N 50°08' W 124°42'0 0.0
2016-Jul-16 15:33N 50°08' W 124°42'0 0.0
2016-Jul-16 14:33N 50°08' W 124°42'0 0.0
2016-Jul-16 13:33N 50°08' W 124°42'0 0.0
2016-Jul-16 12:33N 50°08' W 124°42'0 0.0
2016-Jul-16 11:34N 50°08' W 124°42'0 0.0
2016-Jul-16 10:33N 50°08' W 124°42'0 0.0
2016-Jul-16 09:33N 50°08' W 124°42'0 0.0
2016-Jul-16 08:33N 50°08' W 124°42'0 0.0
2016-Jul-16 07:33N 50°08' W 124°42'0 0.0
2016-Jul-16 06:33N 50°08' W 124°42'0 0.0
2016-Jul-16 04:33N 50°08' W 124°42'0 0.0
2016-Jul-16 03:33N 50°08' W 124°42'0 0.0
2016-Jul-16 02:33N 50°08' W 124°42'0 0.0
2016-Jul-16 01:33N 50°08' W 124°42'2 2.0
2016-Jul-16 00:33N 50°07' W 124°44'8 8.3
2016-Jul-15 23:33N 49°59' W 124°47'1111.1
2016-Jul-15 22:33N 49°51' W 124°35'1110.7
2016-Jul-15 21:33N 49°44' W 124°23'1110.8
2016-Jul-15 20:33N 49°37' W 124°10'1111.1
2016-Jul-15 19:33N 49°30' W 123°57'1212.0
2016-Jul-15 18:33N 49°24' W 123°41'1212.2
2016-Jul-15 17:33N 49°19' W 123°23'1110.7
2016-Jul-15 16:33N 49°16' W 123°08'0 0.5
2016-Jul-15 15:33N 49°16' W 123°07'0 0.0
2016-Jul-15 14:33N 49°16' W 123°07'0 0.0
2016-Jul-15 13:33N 49°16' W 123°07'0 0.0
2016-Jul-15 12:33N 49°16' W 123°07'0 0.0
2016-Jul-15 11:33N 49°16' W 123°07'0 0.0
2016-Jul-15 10:33N 49°16' W 123°07'0 0.0
2016-Jul-15 09:33N 49°16' W 123°07'0 0.0
2016-Jul-15 08:33N 49°16' W 123°07'0 0.0
2016-Jul-15 07:33N 49°16' W 123°07'0 0.0
2016-Jul-15 06:33N 49°16' W 123°07'0 0.0
2016-Jul-15 05:33N 49°16' W 123°07'0 0.0
2016-Jul-15 04:33N 49°16' W 123°07'0 0.0
2016-Jul-15 03:33N 49°16' W 123°07'0 0.0
2016-Jul-15 02:33N 49°16' W 123°07'0 0.0
2016-Jul-15 01:33N 49°16' W 123°07'0 0.0
2016-Jul-15 00:33N 49°16' W 123°07'0 0.0
2016-Jul-14 23:33N 49°16' W 123°07'0 0.0
2016-Jul-14 22:33N 49°16' W 123°07'0 0.0
2016-Jul-14 21:33N 49°16' W 123°07'0 0.0
2016-Jul-14 20:33N 49°16' W 123°07'0 0.0
2016-Jul-14 19:33N 49°16' W 123°07'0 0.0
2016-Jul-14 18:33N 49°16' W 123°07'0 0.0
2016-Jul-14 17:33N 49°16' W 123°07'0 0.0
2016-Jul-14 16:33N 49°16' W 123°07'0 0.0
2016-Jul-14 15:33N 49°16' W 123°07'0 0.0
2016-Jul-14 14:33N 49°16' W 123°07'0 0.0
2016-Jul-14 13:33N 49°16' W 123°07'0 0.0
2016-Jul-14 12:33N 49°16' W 123°07'0 0.0
2016-Jul-14 11:33N 49°16' W 123°07'0 0.0
2016-Jul-14 10:33N 49°16' W 123°07'0 0.0
2016-Jul-14 09:33N 49°16' W 123°07'0 0.0
2016-Jul-14 08:33N 49°16' W 123°07'0 0.0
2016-Jul-14 07:33N 49°16' W 123°07'0 0.0
2016-Jul-14 06:33N 49°16' W 123°07'0 0.0
2016-Jul-14 05:33N 49°16' W 123°07'0 0.0
2016-Jul-14 04:33N 49°16' W 123°07'0 0.0
2016-Jul-14 03:33N 49°16' W 123°07'0 0.0
2016-Jul-14 02:33N 49°16' W 123°07'0 0.0
2016-Jul-14 01:33N 49°16' W 123°07'0 0.0
2016-Jul-14 00:33N 49°16' W 123°07'0 0.0
2016-Jul-13 23:33N 49°16' W 123°07'0 0.0
2016-Jul-13 22:33N 49°16' W 123°07'0 0.0
2016-Jul-13 21:33N 49°16' W 123°07'0 0.0
2016-Jul-13 20:33N 49°16' W 123°07'0 0.0
2016-Jul-13 19:33N 49°16' W 123°07'0 0.0
2016-Jul-13 18:33N 49°16' W 123°07'0 0.0
2016-Jul-13 17:33N 49°16' W 123°07'0 0.0
2016-Jul-13 16:33N 49°16' W 123°07'0 0.0
2016-Jul-13 15:33N 49°16' W 123°07'0 0.0
2016-Jul-13 14:33N 49°16' W 123°07'0 0.0
2016-Jul-13 13:33N 49°16' W 123°07'0 0.0
2016-Jul-13 12:33N 49°16' W 123°07'0 0.0
2016-Jul-13 11:33N 49°16' W 123°07'0 0.0
2016-Jul-13 10:33N 49°16' W 123°07'0 0.0
2016-Jul-13 09:33N 49°16' W 123°07'0 0.0
2016-Jul-13 08:33N 49°16' W 123°07'0 0.0
2016-Jul-13 07:33N 49°16' W 123°07'0 0.0
2016-Jul-13 06:33N 49°16' W 123°07'0 0.0
2016-Jul-13 05:33N 49°16' W 123°07'0 0.0
2016-Jul-13 04:33N 49°16' W 123°07'0 0.0
2016-Jul-13 03:33N 49°16' W 123°07'0 0.0
2016-Jul-13 02:33N 49°16' W 123°07'0 0.0
2016-Jul-13 01:33N 49°16' W 123°07'0 0.0
2016-Jul-13 00:33N 49°16' W 123°07'0 0.0
2016-Jul-12 23:33N 49°16' W 123°07'  
Track history (hours):
 
Tides and Currents Weather Stations Pressure Air Temp Water Temp Dewpoint Dewpoint Depression Visibility Wind Speed Wind Dir Waves Ship Positions

New Atlantic

Owner: EPB LEASING LLC, Seattle, WA. More information available from US FCC via Universal Licensing System and Coast Guard Vessel Documentation Center.

Last reported at 2016-Jul-22 23:25 UTC. Time now 2016-Jul-23 09:13 UTC.
Position N 48°51' W 123°30'.

Length 28 m; draft 2 m.

Type: Pleasure craft. MMSI: 367105860.

Date/timePositionNaut miles runAvg speedWind from/ knotsBaromVisibWave heightAir tempDewpointWater temp
2016-Jul-22 23:25N 48°51' W 123°30'0 0.0
2016-Jul-22 22:32N 48°51' W 123°30'0 0.0
2016-Jul-22 20:32N 48°51' W 123°30'0 0.0
2016-Jul-22 16:30N 48°51' W 123°30'16 0.7
2016-Jul-21 18:15N 49°04' W 123°44'810.0
2016-Jul-21 17:28N 49°09' W 123°53'4 0.1
2016-Jul-19 23:33N 49°13' W 123°55'1110.3
2016-Jul-19 22:28N 49°19' W 124°10'910.4
2016-Jul-19 21:34N 49°23' W 124°23'1110.5
2016-Jul-19 20:32N 49°28' W 124°38'3310.7
2016-Jul-19 17:28N 49°55' W 125°06'8 9.2
2016-Jul-19 16:33N 50°02' W 125°14'1 0.6
2016-Jul-19 15:34N 50°02' W 125°14'0 0.0
2016-Jul-19 14:34N 50°02' W 125°14'0 0.0
2016-Jul-19 13:33N 50°02' W 125°14'0 0.0
2016-Jul-19 12:34N 50°02' W 125°14'0 0.0
2016-Jul-19 11:34N 50°02' W 125°14'0 0.0
2016-Jul-19 10:34N 50°02' W 125°14'0 0.0
2016-Jul-19 09:33N 50°02' W 125°14'0 0.0
2016-Jul-19 08:34N 50°02' W 125°14'0 0.0
2016-Jul-19 07:33N 50°02' W 125°14'0 0.0
2016-Jul-19 04:34N 50°02' W 125°14'0 0.0
2016-Jul-19 03:34N 50°02' W 125°14'0 0.0
2016-Jul-19 02:34N 50°02' W 125°14'0 0.0
2016-Jul-19 01:34N 50°02' W 125°14'0 0.0
2016-Jul-19 00:33N 50°02' W 125°14'5 4.5
2016-Jul-18 23:34N 50°06' W 125°18'6 5.8
2016-Jul-18 22:33N 50°11' W 125°21'5 5.0
2016-Jul-18 21:32N 50°16' W 125°24'11 2.2
2016-Jul-18 16:33N 50°25' W 125°13'2 0.0
2016-Jul-16 21:32N 50°24' W 125°10'4 3.7
2016-Jul-16 20:33N 50°21' W 125°08'3 2.8
2016-Jul-16 19:33N 50°19' W 125°05'8 7.6
2016-Jul-16 18:33N 50°18' W 124°53'7 6.7
2016-Jul-16 17:33N 50°13' W 124°47'6 5.7
2016-Jul-16 16:33N 50°08' W 124°42'0 0.0
2016-Jul-16 15:33N 50°08' W 124°42'0 0.0
2016-Jul-16 14:33N 50°08' W 124°42'0 0.0
2016-Jul-16 13:33N 50°08' W 124°42'0 0.0
2016-Jul-16 12:33N 50°08' W 124°42'0 0.0
2016-Jul-16 11:34N 50°08' W 124°42'0 0.0
2016-Jul-16 10:33N 50°08' W 124°42'0 0.0
2016-Jul-16 09:33N 50°08' W 124°42'0 0.0
2016-Jul-16 08:33N 50°08' W 124°42'0 0.0
2016-Jul-16 07:33N 50°08' W 124°42'0 0.0
2016-Jul-16 06:33N 50°08' W 124°42'0 0.0
2016-Jul-16 04:33N 50°08' W 124°42'0 0.0
2016-Jul-16 03:33N 50°08' W 124°42'0 0.0
2016-Jul-16 02:33N 50°08' W 124°42'0 0.0
2016-Jul-16 01:33N 50°08' W 124°42'2 2.0
2016-Jul-16 00:33N 50°07' W 124°44'8 8.3
2016-Jul-15 23:33N 49°59' W 124°47'1111.1
2016-Jul-15 22:33N 49°51' W 124°35'1110.7
2016-Jul-15 21:33N 49°44' W 124°23'1110.8
2016-Jul-15 20:33N 49°37' W 124°10'1111.1
2016-Jul-15 19:33N 49°30' W 123°57'1212.0
2016-Jul-15 18:33N 49°24' W 123°41'1212.2
2016-Jul-15 17:33N 49°19' W 123°23'1110.7
2016-Jul-15 16:33N 49°16' W 123°08'0 0.5
2016-Jul-15 15:33N 49°16' W 123°07'0 0.0
2016-Jul-15 14:33N 49°16' W 123°07'0 0.0
2016-Jul-15 13:33N 49°16' W 123°07'0 0.0
2016-Jul-15 12:33N 49°16' W 123°07'0 0.0
2016-Jul-15 11:33N 49°16' W 123°07'0 0.0
2016-Jul-15 10:33N 49°16' W 123°07'0 0.0
2016-Jul-15 09:33N 49°16' W 123°07'0 0.0
2016-Jul-15 08:33N 49°16' W 123°07'0 0.0
2016-Jul-15 07:33N 49°16' W 123°07'0 0.0
2016-Jul-15 06:33N 49°16' W 123°07'0 0.0
2016-Jul-15 05:33N 49°16' W 123°07'0 0.0
2016-Jul-15 04:33N 49°16' W 123°07'0 0.0
2016-Jul-15 03:33N 49°16' W 123°07'0 0.0
2016-Jul-15 02:33N 49°16' W 123°07'0 0.0
2016-Jul-15 01:33N 49°16' W 123°07'0 0.0
2016-Jul-15 00:33N 49°16' W 123°07'0 0.0
2016-Jul-14 23:33N 49°16' W 123°07'0 0.0
2016-Jul-14 22:33N 49°16' W 123°07'0 0.0
2016-Jul-14 21:33N 49°16' W 123°07'0 0.0
2016-Jul-14 20:33N 49°16' W 123°07'0 0.0
2016-Jul-14 19:33N 49°16' W 123°07'0 0.0
2016-Jul-14 18:33N 49°16' W 123°07'0 0.0
2016-Jul-14 17:33N 49°16' W 123°07'0 0.0
2016-Jul-14 16:33N 49°16' W 123°07'0 0.0
2016-Jul-14 15:33N 49°16' W 123°07'0 0.0
2016-Jul-14 14:33N 49°16' W 123°07'0 0.0
2016-Jul-14 13:33N 49°16' W 123°07'0 0.0
2016-Jul-14 12:33N 49°16' W 123°07'0 0.0
2016-Jul-14 11:33N 49°16' W 123°07'0 0.0
2016-Jul-14 10:33N 49°16' W 123°07'0 0.0
2016-Jul-14 09:33N 49°16' W 123°07'0 0.0
2016-Jul-14 08:33N 49°16' W 123°07'0 0.0
2016-Jul-14 07:33N 49°16' W 123°07'0 0.0
2016-Jul-14 06:33N 49°16' W 123°07'0 0.0
2016-Jul-14 05:33N 49°16' W 123°07'0 0.0
2016-Jul-14 04:33N 49°16' W 123°07'0 0.0
2016-Jul-14 03:33N 49°16' W 123°07'0 0.0
2016-Jul-14 02:33N 49°16' W 123°07'0 0.0
2016-Jul-14 01:33N 49°16' W 123°07'0 0.0
2016-Jul-14 00:33N 49°16' W 123°07'0 0.0
2016-Jul-13 23:33N 49°16' W 123°07'0 0.0
2016-Jul-13 22:33N 49°16' W 123°07'0 0.0
2016-Jul-13 21:33N 49°16' W 123°07'0 0.0
2016-Jul-13 20:33N 49°16' W 123°07'0 0.0
2016-Jul-13 19:33N 49°16' W 123°07'0 0.0
2016-Jul-13 18:33N 49°16' W 123°07'0 0.0
2016-Jul-13 17:33N 49°16' W 123°07'0 0.0
2016-Jul-13 16:33N 49°16' W 123°07'0 0.0
2016-Jul-13 15:33N 49°16' W 123°07'0 0.0
2016-Jul-13 14:33N 49°16' W 123°07'0 0.0
2016-Jul-13 13:33N 49°16' W 123°07'0 0.0
2016-Jul-13 12:33N 49°16' W 123°07'0 0.0
2016-Jul-13 11:33N 49°16' W 123°07'0 0.0
2016-Jul-13 10:33N 49°16' W 123°07'0 0.0
2016-Jul-13 09:33N 49°16' W 123°07'0 0.0
2016-Jul-13 08:33N 49°16' W 123°07'0 0.0
2016-Jul-13 07:33N 49°16' W 123°07'0 0.0
2016-Jul-13 06:33N 49°16' W 123°07'0 0.0
2016-Jul-13 05:33N 49°16' W 123°07'0 0.0
2016-Jul-13 04:33N 49°16' W 123°07'0 0.0
2016-Jul-13 03:33N 49°16' W 123°07'0 0.0
2016-Jul-13 02:33N 49°16' W 123°07'0 0.0
2016-Jul-13 01:33N 49°16' W 123°07'0 0.0
2016-Jul-13 00:33N 49°16' W 123°07'0 0.0
2016-Jul-12 23:33N 49°16' W 123°07'  

Dump ship's entire track history